This is the latest recevied weather packets stored in our database for station/object W4OTS. If no packets are shown the sender has not sent any weather packets the latest 1 day(s).
| Time | Temp. | Humidity | Pressure | Rain* | Wind** | Luminosity | Snow |
|---|---|---|---|---|---|---|---|
| 1778036107 | 17.22° C | 68% | 1015.7 hPa | 0 mm | - | 0 W/m² | - |
| 1778035196 | 17.22° C | 68% | 1015.8 hPa | 0 mm | - | 0 W/m² | - |
| 1778034893 | 17.78° C | 67% | 1015.9 hPa | 0 mm | - | 0 W/m² | - |
| 1778034590 | 17.78° C | 66% | 1015.9 hPa | 0 mm | - | 0 W/m² | - |
| 1778034288 | 17.78° C | 64% | 1015.8 hPa | 0 mm | - | 0 W/m² | - |
| 1778033986 | 18.33° C | 64% | 1016 hPa | 0 mm | - | 0 W/m² | - |
| 1778033380 | 18.33° C | 64% | 1015.9 hPa | 0 mm | - | 0 W/m² | - |
| 1778033077 | 18.33° C | 64% | 1015.9 hPa | 0 mm | - | 0 W/m² | - |
| 1778032471 | 18.33° C | 66% | 1015.9 hPa | 0 mm | - | 0 W/m² | - |
| 1778031866 | 18.89° C | 66% | 1015.9 hPa | 0 mm | - | 0 W/m² | - |
| 1778031561 | 18.89° C | 63% | 1015.8 hPa | 0 mm | - | 0 W/m² | - |
| 1778031260 | 19.44° C | 60% | 1015.9 hPa | 0 mm | - | 0 W/m² | - |
| 1778030956 | 19.44° C | 60% | 1015.8 hPa | 0 mm | - | 0 W/m² | - |
| 1778030653 | 19.44° C | 59% | 1016.1 hPa | 0 mm | - | 0 W/m² | - |
| 1778030350 | 19.44° C | 59% | 1015.9 hPa | 0 mm | - | 0 W/m² | - |
| 1778030047 | 19.44° C | 59% | 1016.1 hPa | 0 mm | - | 0 W/m² | - |
| 1778028836 | 21.11° C | 54% | 1015.7 hPa | 0 mm | - | 0 W/m² | - |
| 1778028531 | 21.11° C | 54% | 1015.5 hPa | 0 mm | - | 0 W/m² | - |
| 1778027318 | 21.67° C | 51% | 1015.7 hPa | 0 mm | - | 0 W/m² | - |
| 1778026710 | 22.22° C | 50% | 1015.5 hPa | 0 mm | - | 0 W/m² | - |
| 1778022775 | 23.33° C | 45% | 1015.3 hPa | 0 mm | - | 24 W/m² | - |
| 1778021258 | 23.89° C | 44% | 1015.4 hPa | 0 mm | - | 28 W/m² | - |
| 1778020956 | 23.89° C | 46% | 1015.4 hPa | 0 mm | - | 31 W/m² | - |
| 1778017926 | 23.89° C | 45% | 1015.5 hPa | 0 mm | - | 75 W/m² | - |
| 1778016715 | 23.89° C | 42% | 1015.4 hPa | 0 mm | - | 50 W/m² | - |
* Rain latest hour (hover to see other rain measurements)
** Current wind speed in m/s (hover to see current wind gust speed)